Time;durP1;ratioP1;P1;durP2;ratioP2;P2;SDS_P1;SDS_P2;PMS_P1;PMS_P2;Temp;Humidity;BMP_temperature;BMP_pressure;BME280_temperature;BME280_humidity;BME280_pressure;Samples;Min_cycle;Max_cycle;Signal;HPM_P1;HPM_P2
2022/05/15 00:00:37;;;;;;;11.80;3.63;;;16.20;99.50;;;;;;4967935;29;20058;-88
2022/05/15 00:00:37;;;;;;;9.00;3.83;;;16.20;99.90;;;;;;4970429;28;20027;-87
2022/05/15 00:03:17;;;;;;;6.50;3.55;;;16.10;99.90;;;;;;4970973;29;20027;-88
2022/05/15 00:05:44;;;;;;;9.00;4.15;;;16.10;99.90;;;;;;4970027;29;20026;-89
2022/05/15 00:08:11;;;;;;;9.25;4.10;;;16.10;99.90;;;;;;4970556;29;20249;-90
2022/05/15 00:10:39;;;;;;;9.00;3.55;;;16.10;99.90;;;;;;4968389;29;20043;-89
2022/05/15 00:13:06;;;;;;;9.38;3.50;;;16.00;99.90;;;;;;4968559;29;20030;-89
2022/05/15 00:15:33;;;;;;;10.73;4.05;;;16.00;99.90;;;;;;4967612;28;20028;-89
2022/05/15 00:17:59;;;;;;;6.78;3.92;;;15.90;99.90;;;;;;4973110;28;20019;-86
2022/05/15 00:20:25;;;;;;;9.80;4.20;;;15.90;99.90;;;;;;4972192;28;20031;-89
2022/05/15 00:22:52;;;;;;;7.45;3.78;;;15.90;99.90;;;;;;4970990;28;20540;-88
2022/05/15 00:25:17;;;;;;;9.85;3.78;;;15.80;99.90;;;;;;4971152;29;20039;-90
2022/05/15 00:27:44;;;;;;;10.15;4.38;;;15.80;99.90;;;;;;4973014;28;20031;-89
2022/05/15 00:30:12;;;;;;;6.68;3.60;;;15.80;99.90;;;;;;4970802;28;20071;-89
2022/05/15 00:32:39;;;;;;;7.30;3.78;;;15.80;99.90;;;;;;4967822;29;20027;-89
2022/05/15 00:35:06;;;;;;;9.35;4.45;;;15.80;99.90;;;;;;4967747;28;20032;-89
2022/05/15 00:37:32;;;;;;;9.48;3.80;;;15.80;99.90;;;;;;4967580;28;20079;-91
2022/05/15 00:39:58;;;;;;;9.13;3.47;;;15.80;99.90;;;;;;4967427;28;20046;-88
2022/05/15 00:42:24;;;;;;;6.38;2.75;;;15.80;99.90;;;;;;4970505;28;20023;-89
2022/05/15 00:44:49;;;;;;;5.75;2.38;;;15.70;99.90;;;;;;4974667;28;20027;-85
2022/05/15 00:47:15;;;;;;;9.88;2.42;;;15.70;99.90;;;;;;4981727;28;20075;-86
2022/05/15 00:49:41;;;;;;;3.90;2.50;;;15.60;99.90;;;;;;4981832;28;20022;-87
2022/05/15 00:52:12;;;;;;;9.32;2.67;;;15.60;99.90;;;;;;4982530;28;20067;-86
2022/05/15 00:54:49;;;;;;;5.68;2.75;;;15.40;99.90;;;;;;4964351;29;20024;-86
2022/05/15 00:57:37;;;;;;;7.55;2.70;;;15.30;99.90;;;;;;4980407;28;20100;-87
2022/05/15 01:00:16;;;;;;;10.90;2.63;;;15.20;99.90;;;;;;4962738;28;20054;-88
2022/05/15 01:02:48;;;;;;;4.85;2.38;;;15.20;99.90;;;;;;4972602;28;20036;-88
2022/05/15 01:05:15;;;;;;;6.25;2.60;;;15.10;99.90;;;;;;4971912;29;20043;-88
2022/05/15 01:07:41;;;;;;;4.65;2.28;;;15.10;99.90;;;;;;4970203;28;20483;-89
2022/05/15 01:10:08;;;;;;;6.63;2.58;;;15.00;99.90;;;;;;4977704;28;20066;-87
2022/05/15 01:12:40;;;;;;;4.25;2.45;;;15.00;99.90;;;;;;4982140;28;20027;-86
2022/05/15 01:15:14;;;;;;;6.68;2.70;;;14.90;99.90;;;;;;4981991;28;20088;-86
2022/05/15 01:17:41;;;;;;;5.80;2.42;;;14.90;99.90;;;;;;4981496;28;20043;-86
2022/05/15 01:20:12;;;;;;;8.77;2.90;;;14.90;99.90;;;;;;4980619;28;20039;-87
2022/05/15 01:22:39;;;;;;;7.07;2.70;;;14.90;99.90;;;;;;4977919;29;20033;-89
2022/05/15 01:25:13;;;;;;;5.60;2.83;;;14.90;99.90;;;;;;4975785;28;20039;-86
2022/05/15 01:27:53;;;;;;;4.43;2.60;;;14.90;99.90;;;;;;4974282;28;20031;-87
2022/05/15 01:30:20;;;;;;;7.45;2.75;;;14.90;99.90;;;;;;4971433;28;20116;-86
2022/05/15 01:32:46;;;;;;;5.20;2.53;;;14.80;99.90;;;;;;4972751;28;20027;-89
2022/05/15 01:35:12;;;;;;;5.20;2.60;;;14.90;99.90;;;;;;4972041;29;20087;-90
2022/05/15 01:37:38;;;;;;;7.78;2.33;;;14.90;99.90;;;;;;4979456;28;20018;-87
2022/05/15 01:40:06;;;;;;;5.57;2.60;;;14.80;99.90;;;;;;4974310;28;20027;-91
2022/05/15 01:42:32;;;;;;;7.68;2.90;;;14.80;99.90;;;;;;4979382;28;20035;-88
2022/05/15 01:44:58;;;;;;;7.75;2.45;;;14.70;99.90;;;;;;4978841;29;20011;-87
2022/05/15 01:47:24;;;;;;;9.63;2.55;;;14.70;99.90;;;;;;4979034;28;20020;-87
2022/05/15 01:49:50;;;;;;;7.13;3.10;;;14.70;99.90;;;;;;4979595;28;20059;-88
2022/05/15 01:52:16;;;;;;;10.15;2.70;;;14.60;99.90;;;;;;4978357;28;20079;-87
2022/05/15 01:54:42;;;;;;;7.63;2.70;;;14.60;99.90;;;;;;4964262;28;20016;-86
2022/05/15 01:57:09;;;;;;;9.68;3.17;;;14.60;99.90;;;;;;4978324;28;20031;-89
2022/05/15 01:59:36;;;;;;;5.78;2.83;;;14.60;99.90;;;;;;4957814;29;20042;-89
2022/05/15 02:02:02;;;;;;;6.30;2.88;;;14.50;99.90;;;;;;4974824;28;20091;-89
2022/05/15 02:04:28;;;;;;;6.78;2.70;;;14.50;99.90;;;;;;4978223;28;20043;-87
2022/05/15 02:06:54;;;;;;;6.78;2.53;;;14.50;99.90;;;;;;4977675;28;20016;-88
2022/05/15 02:09:20;;;;;;;5.55;2.58;;;14.50;99.90;;;;;;4980573;28;20035;-87
2022/05/15 02:11:45;;;;;;;13.25;2.40;;;14.50;99.90;;;;;;4979607;28;20018;-86
2022/05/15 02:14:12;;;;;;;5.18;2.33;;;14.50;99.90;;;;;;4979661;28;20114;-85
2022/05/15 02:16:38;;;;;;;8.40;2.88;;;14.50;99.90;;;;;;4980238;28;20034;-88
2022/05/15 02:19:04;;;;;;;4.88;3.17;;;14.50;99.90;;;;;;4977067;28;20095;-88
2022/05/15 02:21:30;;;;;;;6.13;3.08;;;14.50;99.90;;;;;;4978496;28;20026;-87
2022/05/15 02:23:57;;;;;;;7.45;2.97;;;14.50;99.90;;;;;;4961589;28;20027;-86
2022/05/15 02:26:23;;;;;;;3.75;2.58;;;14.50;99.90;;;;;;4978989;28;20019;-87
2022/05/15 02:28:49;;;;;;;7.38;3.20;;;14.50;99.90;;;;;;4979940;28;20019;-87
2022/05/15 02:31:16;;;;;;;6.38;2.97;;;14.50;99.90;;;;;;4964110;28;20031;-86
2022/05/15 02:33:42;;;;;;;3.85;2.63;;;14.40;99.90;;;;;;4979509;28;20027;-88
2022/05/15 02:36:09;;;;;;;8.68;3.22;;;14.40;99.90;;;;;;4979785;28;20035;-85
2022/05/15 02:38:37;;;;;;;6.80;2.70;;;14.40;99.90;;;;;;4979314;28;20087;-86
2022/05/15 02:41:04;;;;;;;6.40;2.63;;;14.40;99.90;;;;;;4975817;28;20016;-87
2022/05/15 02:43:30;;;;;;;7.97;3.22;;;14.40;99.90;;;;;;4977309;28;20103;-88
2022/05/15 02:45:56;;;;;;;10.20;3.17;;;14.40;99.90;;;;;;4975693;28;20019;-89
2022/05/15 02:51:10;;;;;;;8.93;2.60;;;14.40;99.90;;;;;;4978020;28;20088;-87
2022/05/15 02:53:39;;;;;;;6.40;2.88;;;14.40;99.90;;;;;;4975888;28;20075;-89
2022/05/15 02:56:10;;;;;;;9.25;2.97;;;14.40;99.90;;;;;;4975295;28;20051;-87
2022/05/15 02:58:37;;;;;;;4.55;2.80;;;14.40;99.90;;;;;;4974770;28;20439;-88
2022/05/15 03:01:04;;;;;;;6.07;2.90;;;14.30;99.90;;;;;;4977091;28;20086;-88
2022/05/15 03:03:30;;;;;;;4.75;2.90;;;14.30;99.90;;;;;;4976647;28;20035;-89
2022/05/15 03:05:56;;;;;;;6.25;2.60;;;14.20;99.90;;;;;;4975768;28;20035;-89
2022/05/15 03:08:22;;;;;;;5.43;2.80;;;14.10;99.90;;;;;;4972671;29;20036;-87
2022/05/15 03:10:49;;;;;;;9.05;2.75;;;14.10;99.90;;;;;;5017811;23;20445;-85
2022/05/15 03:13:14;;;;;;;5.13;2.80;;;14.00;99.90;;;;;;4997676;28;20704;-84
2022/05/15 03:15:40;;;;;;;4.25;2.90;;;13.90;99.90;;;;;;5008385;28;20019;-86
2022/05/15 03:18:06;;;;;;;6.10;3.17;;;13.90;99.90;;;;;;5014770;28;20390;-85
2022/05/15 03:20:32;;;;;;;5.88;3.10;;;13.90;99.90;;;;;;5006138;28;20026;-84
2022/05/15 03:22:59;;;;;;;5.70;3.25;;;13.80;99.90;;;;;;5003291;28;20037;-85
2022/05/15 03:25:27;;;;;;;6.30;2.72;;;13.80;99.90;;;;;;4998042;28;20031;-83
2022/05/15 03:27:56;;;;;;;5.63;3.05;;;13.80;99.90;;;;;;4997056;28;20105;-84
2022/05/15 03:30:22;;;;;;;5.15;3.00;;;13.70;99.90;;;;;;4996982;28;20036;-84
2022/05/15 03:32:48;;;;;;;7.20;3.42;;;13.60;99.90;;;;;;5000098;28;20078;-83
2022/05/15 03:35:14;;;;;;;7.10;2.63;;;13.60;99.90;;;;;;5013427;28;20018;-86
2022/05/15 03:37:41;;;;;;;8.25;3.00;;;13.60;99.90;;;;;;5017541;28;20123;-86
2022/05/15 03:40:10;;;;;;;5.65;3.25;;;13.50;99.90;;;;;;5004047;28;20026;-85
2022/05/15 03:42:37;;;;;;;7.22;3.08;;;13.50;99.90;;;;;;5002833;28;20029;-84
2022/05/15 03:45:03;;;;;;;7.43;2.83;;;13.50;99.90;;;;;;5003875;28;20022;-84
2022/05/15 03:47:29;;;;;;;6.05;3.03;;;13.50;99.90;;;;;;5007957;28;20022;-85
2022/05/15 03:50:01;;;;;;;5.82;3.17;;;13.60;99.90;;;;;;5004508;28;20045;-85
2022/05/15 03:52:26;;;;;;;5.22;2.95;;;13.60;99.90;;;;;;5005895;28;20085;-85
2022/05/15 03:54:52;;;;;;;9.35;3.17;;;13.60;99.90;;;;;;5007479;28;20030;-84
2022/05/15 03:57:19;;;;;;;5.63;2.72;;;13.60;99.90;;;;;;5006677;28;20038;-84
2022/05/15 03:59:45;;;;;;;7.50;3.25;;;13.70;99.90;;;;;;4987090;28;20023;-84
2022/05/15 04:02:12;;;;;;;8.63;3.10;;;13.70;99.90;;;;;;5002284;28;20033;-84
2022/05/15 04:04:39;;;;;;;6.18;3.03;;;13.80;99.90;;;;;;4984896;28;20030;-83
2022/05/15 04:07:05;;;;;;;6.95;3.20;;;14.00;99.90;;;;;;5000180;28;20549;-86
2022/05/15 04:09:32;;;;;;;7.93;3.15;;;14.00;99.90;;;;;;5000465;28;20040;-84
2022/05/15 04:11:58;;;;;;;5.95;2.85;;;14.00;99.90;;;;;;4993314;28;20102;-86
2022/05/15 04:14:24;;;;;;;4.28;2.65;;;14.10;99.90;;;;;;5011873;28;20066;-85
2022/05/15 04:16:50;;;;;;;5.80;3.22;;;14.20;99.90;;;;;;5004714;28;20038;-84
2022/05/15 04:19:16;;;;;;;4.00;2.80;;;14.20;99.90;;;;;;5007496;28;20027;-84
2022/05/15 04:21:42;;;;;;;5.45;2.75;;;14.30;99.90;;;;;;5016028;28;20064;-85
2022/05/15 04:24:10;;;;;;;4.60;3.00;;;14.40;99.90;;;;;;5022684;28;20029;-86
2022/05/15 04:26:38;;;;;;;5.18;2.97;;;14.40;99.90;;;;;;5021847;28;20026;-88
2022/05/15 04:29:05;;;;;;;4.35;2.78;;;14.50;99.90;;;;;;5018710;28;20061;-85
2022/05/15 04:31:31;;;;;;;4.30;2.80;;;14.60;99.90;;;;;;5015682;28;20035;-84
2022/05/15 04:33:57;;;;;;;6.07;3.22;;;14.70;99.90;;;;;;5019563;28;20019;-86
2022/05/15 04:36:23;;;;;;;5.65;3.45;;;14.80;99.90;;;;;;5017267;28;20128;-84
2022/05/15 04:38:49;;;;;;;8.63;3.42;;;14.90;99.90;;;;;;5016464;28;20018;-85
2022/05/15 04:41:15;;;;;;;7.43;2.92;;;14.90;99.90;;;;;;5005815;28;20026;-84
2022/05/15 04:43:41;;;;;;;8.98;3.70;;;15.00;99.90;;;;;;5004598;28;20037;-85
2022/05/15 04:46:07;;;;;;;6.43;2.85;;;15.00;99.90;;;;;;5004317;28;20022;-84
2022/05/15 04:48:37;;;;;;;11.48;3.75;;;15.20;99.90;;;;;;5005278;28;20022;-86
2022/05/15 04:51:03;;;;;;;8.88;3.22;;;15.50;99.90;;;;;;4986826;28;20041;-85
2022/05/15 04:53:33;;;;;;;6.43;2.88;;;15.70;99.90;;;;;;5005208;28;20050;-85
2022/05/15 04:56:00;;;;;;;11.98;3.25;;;15.80;99.90;;;;;;5004554;28;20030;-85
2022/05/15 04:58:28;;;;;;;8.43;3.75;;;15.80;99.90;;;;;;5004834;28;20030;-85
2022/05/15 05:00:54;;;;;;;6.63;3.03;;;15.90;99.90;;;;;;5000762;28;20038;-84
2022/05/15 05:03:20;;;;;;;6.55;3.05;;;15.80;99.90;;;;;;5002532;28;20502;-85
2022/05/15 05:05:47;;;;;;;6.95;3.50;;;15.90;99.90;;;;;;5007408;28;20033;-83
2022/05/15 05:08:13;;;;;;;6.20;3.35;;;15.90;99.90;;;;;;5005753;28;20031;-84
2022/05/15 05:10:40;;;;;;;6.88;3.47;;;16.10;99.90;;;;;;5004069;28;20065;-86
2022/05/15 05:13:06;;;;;;;9.65;3.45;;;16.20;99.90;;;;;;5001397;28;20118;-85
2022/05/15 05:15:33;;;;;;;7.10;3.80;;;16.20;99.90;;;;;;5003625;28;20030;-84
2022/05/15 05:17:59;;;;;;;5.97;3.40;;;16.30;99.90;;;;;;5008155;28;20093;-86
2022/05/15 05:20:25;;;;;;;5.55;3.42;;;16.50;99.90;;;;;;5018095;28;20022;-83
2022/05/15 05:22:51;;;;;;;6.75;3.80;;;16.60;99.90;;;;;;5019285;28;20030;-86
2022/05/15 05:25:18;;;;;;;5.90;3.72;;;16.60;99.90;;;;;;5015273;28;20054;-83
2022/05/15 05:27:45;;;;;;;10.20;3.35;;;16.70;99.90;;;;;;5009822;28;20113;-87
2022/05/15 05:30:19;;;;;;;5.45;3.78;;;16.70;99.90;;;;;;5010247;28;20091;-84
2022/05/15 05:32:45;;;;;;;8.93;3.38;;;16.90;99.90;;;;;;5005919;28;20030;-84
2022/05/15 05:35:13;;;;;;;8.25;3.88;;;16.90;99.90;;;;;;5006997;28;20038;-85
2022/05/15 05:37:39;;;;;;;6.93;3.50;;;17.00;99.90;;;;;;5007625;28;20034;-83
2022/05/15 05:40:06;;;;;;;12.10;5.57;;;17.10;99.90;;;;;;5017704;28;20057;-83
2022/05/15 05:42:31;;;;;;;10.90;5.18;;;17.30;99.90;;;;;;5005805;28;20034;-85
2022/05/15 05:44:57;;;;;;;7.68;4.20;;;17.40;99.90;;;;;;5006238;28;20527;-85
2022/05/15 05:47:27;;;;;;;6.40;3.72;;;17.50;99.90;;;;;;5015365;28;20386;-86
2022/05/15 05:49:54;;;;;;;8.90;3.75;;;17.60;99.90;;;;;;5001248;28;20096;-84
2022/05/15 05:52:20;;;;;;;7.85;3.78;;;17.70;99.90;;;;;;5011409;28;20158;-86
2022/05/15 05:54:46;;;;;;;8.63;3.50;;;17.90;99.90;;;;;;5010316;28;20375;-86
2022/05/15 05:57:12;;;;;;;9.30;3.97;;;17.90;99.90;;;;;;5001003;28;20019;-84
2022/05/15 05:59:38;;;;;;;7.80;2.95;;;18.00;99.90;;;;;;5001435;28;20038;-86
2022/05/15 06:02:06;;;;;;;7.05;3.78;;;18.10;99.90;;;;;;5000077;28;20029;-87
2022/05/15 06:04:44;;;;;;;7.10;3.53;;;18.20;99.90;;;;;;5002547;28;20022;-84
2022/05/15 06:07:24;;;;;;;13.95;3.55;;;18.30;99.90;;;;;;5001772;28;20497;-86
2022/05/15 06:09:51;;;;;;;6.38;3.13;;;18.50;99.90;;;;;;5014026;28;20101;-87
2022/05/15 06:12:20;;;;;;;5.25;3.40;;;18.70;99.90;;;;;;5019516;28;20018;-85
2022/05/15 06:14:48;;;;;;;6.20;3.45;;;19.00;99.90;;;;;;5002790;28;20030;-84
2022/05/15 06:17:14;;;;;;;7.45;3.10;;;19.00;99.90;;;;;;5003328;28;20082;-84
2022/05/15 06:19:40;;;;;;;12.77;3.53;;;19.20;99.90;;;;;;5002887;28;20486;-85
2022/05/15 06:22:07;;;;;;;8.30;3.40;;;19.30;99.90;;;;;;5006253;28;20018;-85
2022/05/15 06:24:33;;;;;;;7.50;3.45;;;19.40;99.90;;;;;;5018975;28;20047;-88
2022/05/15 06:26:59;;;;;;;9.45;3.45;;;19.40;99.90;;;;;;5019603;28;20030;-88
2022/05/15 06:29:27;;;;;;;7.80;3.47;;;19.40;99.90;;;;;;5019299;28;20053;-89
2022/05/15 06:31:53;;;;;;;7.82;3.22;;;19.50;99.90;;;;;;5009234;28;20481;-85
2022/05/15 06:34:18;;;;;;;10.07;3.33;;;19.60;99.90;;;;;;5001340;28;20038;-85
2022/05/15 06:36:44;;;;;;;6.22;3.10;;;19.70;99.90;;;;;;5012177;28;20037;-85
2022/05/15 06:39:10;;;;;;;6.88;3.13;;;19.80;99.90;;;;;;5008998;28;20046;-86
2022/05/15 06:41:37;;;;;;;6.43;3.35;;;19.80;99.90;;;;;;5002042;28;20026;-85
2022/05/15 06:44:03;;;;;;;15.73;7.25;;;19.90;99.90;;;;;;5002157;28;20102;-85
2022/05/15 06:46:29;;;;;;;12.35;4.05;;;20.00;99.90;;;;;;5002532;28;20045;-85
2022/05/15 06:48:55;;;;;;;8.00;3.25;;;20.00;99.90;;;;;;5010991;28;20022;-85
2022/05/15 06:51:21;;;;;;;6.55;2.83;;;20.10;99.70;;;;;;5019067;28;20022;-87
2022/05/15 06:53:49;;;;;;;5.93;2.70;;;20.20;99.10;;;;;;5018638;28;20026;-88
2022/05/15 06:59:02;;;;;;;8.90;3.30;;;20.30;97.40;;;;;;5002035;28;20379;-83
2022/05/15 07:01:28;;;;;;;6.07;2.80;;;20.50;97.50;;;;;;5002563;28;20489;-86
2022/05/15 07:03:55;;;;;;;7.30;3.00;;;20.50;97.20;;;;;;5002900;28;20116;-84
2022/05/15 07:06:21;;;;;;;4.97;2.70;;;20.60;97.20;;;;;;4984584;28;20026;-86
2022/05/15 07:08:48;;;;;;;10.05;3.45;;;20.70;96.80;;;;;;5005701;28;20018;-88
2022/05/15 07:11:14;;;;;;;6.90;3.20;;;20.60;97.00;;;;;;5018947;28;20038;-87
2022/05/15 07:13:40;;;;;;;6.20;2.90;;;20.60;96.60;;;;;;5009455;28;20037;-85
2022/05/15 07:16:06;;;;;;;9.60;3.30;;;20.60;96.50;;;;;;4986486;28;20087;-87
2022/05/15 07:18:32;;;;;;;10.52;3.33;;;20.70;96.60;;;;;;5003618;28;20072;-86
2022/05/15 07:20:58;;;;;;;9.15;3.33;;;20.60;96.40;;;;;;5002546;28;20046;-87
2022/05/15 07:23:26;;;;;;;6.00;3.33;;;20.60;96.30;;;;;;5002121;28;20072;-86
2022/05/15 07:25:52;;;;;;;6.53;3.13;;;20.70;96.70;;;;;;5003834;28;20351;-85
2022/05/15 07:28:18;;;;;;;5.68;3.15;;;20.70;96.90;;;;;;5005145;28;20045;-84
2022/05/15 07:30:45;;;;;;;8.63;3.35;;;20.80;97.10;;;;;;5003779;28;20132;-86
2022/05/15 07:33:10;;;;;;;7.75;3.35;;;20.70;97.20;;;;;;5004237;28;20034;-87
2022/05/15 07:35:36;;;;;;;6.07;3.00;;;20.60;97.40;;;;;;5003814;28;20160;-86
2022/05/15 07:38:02;;;;;;;7.20;2.90;;;20.70;97.20;;;;;;4998604;28;20093;-86
2022/05/15 07:40:28;;;;;;;6.43;3.38;;;20.80;97.30;;;;;;4996679;28;20386;-85
2022/05/15 07:42:54;;;;;;;6.00;3.03;;;20.90;96.50;;;;;;4995676;28;20038;-86
2022/05/15 07:45:20;;;;;;;9.35;3.60;;;20.90;96.10;;;;;;4997967;28;20018;-87
2022/05/15 07:47:46;;;;;;;9.50;3.15;;;20.90;96.10;;;;;;4999615;28;20069;-86
2022/05/15 07:50:13;;;;;;;6.18;2.70;;;21.00;96.40;;;;;;4997532;28;20050;-87
2022/05/15 07:52:39;;;;;;;12.85;3.38;;;21.00;96.20;;;;;;4999366;28;20061;-87
2022/05/15 07:55:06;;;;;;;7.55;2.97;;;21.20;95.70;;;;;;5000316;28;20026;-86
2022/05/15 07:57:35;;;;;;;10.10;3.55;;;21.20;95.50;;;;;;5000220;28;20089;-88
2022/05/15 08:00:05;;;;;;;7.60;3.33;;;21.30;95.30;;;;;;5006208;28;20073;-85
2022/05/15 08:02:38;;;;;;;5.43;2.60;;;21.30;95.40;;;;;;5011463;28;20172;-87
2022/05/15 08:08:00;;;;;;;5.68;2.97;;;21.50;95.50;;;;;;5016602;28;20087;-86
2022/05/15 08:10:36;;;;;;;5.38;3.22;;;21.60;95.20;;;;;;5017542;28;20050;-88
2022/05/15 08:13:12;;;;;;;9.43;3.20;;;21.60;95.40;;;;;;5017005;28;20030;-88
2022/05/15 08:15:39;;;;;;;8.23;2.95;;;21.60;95.30;;;;;;5001558;28;20041;-85
2022/05/15 08:23:46;;;;;;;5.72;2.97;;;21.70;95.40;;;;;;4996376;28;20025;-86
2022/05/15 08:29:40;;;;;;;9.80;3.50;;;21.80;95.20;;;;;;4963103;28;20055;-88
2022/05/15 08:32:38;;;;;;;10.07;3.13;;;21.90;95.20;;;;;;4953972;28;20019;-86
2022/05/15 08:35:04;;;;;;;12.00;3.90;;;21.90;94.90;;;;;;4968892;28;20016;-87
2022/05/15 08:37:30;;;;;;;10.82;3.72;;;22.00;95.00;;;;;;4985840;28;20099;-86
2022/05/15 08:39:57;;;;;;;10.88;3.50;;;22.00;95.20;;;;;;5145267;23;20021;-85
2022/05/15 08:45:14;;;;;;;6.35;3.38;;;22.00;95.20;;;;;;5391788;23;20070;-87
2022/05/15 08:47:44;;;;;;;7.95;3.50;;;22.20;95.50;;;;;;4980921;28;20130;-88
2022/05/15 08:50:14;;;;;;;7.85;3.28;;;22.20;95.20;;;;;;4997535;28;20042;-87
2022/05/15 08:53:27;;;;;;;8.80;3.35;;;22.30;94.80;;;;;;4988251;28;20039;-87
2022/05/15 08:56:21;;;;;;;5.65;3.15;;;22.30;94.30;;;;;;4980107;28;20050;-88
2022/05/15 08:59:06;;;;;;;6.28;3.33;;;22.30;94.10;;;;;;4969517;28;20046;-87
2022/05/15 09:01:33;;;;;;;13.75;3.45;;;22.30;94.40;;;;;;5178099;23;20134;-89
2022/05/15 09:03:59;;;;;;;10.52;3.42;;;22.30;94.30;;;;;;5063976;23;20042;-87
2022/05/15 09:06:31;;;;;;;5.90;3.00;;;22.40;93.20;;;;;;5001711;28;20046;-87
2022/05/15 09:09:00;;;;;;;8.13;3.15;;;22.50;93.90;;;;;;4991904;28;20031;-86
2022/05/15 09:11:29;;;;;;;8.20;3.35;;;22.40;94.00;;;;;;5030907;23;20046;-91
2022/05/15 09:14:11;;;;;;;6.82;3.00;;;22.50;93.90;;;;;;5011260;28;20030;-89
2022/05/15 09:16:42;;;;;;;5.85;3.00;;;22.50;93.50;;;;;;5011827;28;20053;-90
2022/05/15 09:19:08;;;;;;;8.30;3.35;;;22.60;93.10;;;;;;5019704;28;20048;-91
2022/05/15 09:21:34;;;;;;;8.90;3.08;;;22.70;93.10;;;;;;5020657;28;20048;-90
2022/05/15 09:24:13;;;;;;;6.80;3.17;;;22.70;93.80;;;;;;5020144;28;20043;-90
2022/05/15 09:26:45;;;;;;;4.15;2.70;;;22.70;94.00;;;;;;5020496;28;20050;-91
2022/05/15 09:29:26;;;;;;;7.78;2.92;;;22.90;93.30;;;;;;5020216;28;20049;-89
2022/05/15 09:31:53;;;;;;;8.80;3.20;;;23.10;92.30;;;;;;5020290;28;20029;-91
2022/05/15 09:34:32;;;;;;;8.35;2.75;;;23.60;91.80;;;;;;5020362;28;20133;-90
2022/05/15 09:39:51;;;;;;;6.07;2.40;;;24.70;88.10;;;;;;5018961;28;20093;-90
2022/05/15 09:45:08;;;;;;;8.05;2.97;;;25.90;84.70;;;;;;5018768;28;20041;-91
2022/05/15 09:47:37;;;;;;;7.40;2.20;;;26.20;82.90;;;;;;5002974;28;20014;-89
2022/05/15 09:50:08;;;;;;;9.85;2.53;;;27.20;80.80;;;;;;5020520;28;20054;-91
2022/05/15 09:52:37;;;;;;;8.23;2.55;;;28.90;76.60;;;;;;5003599;28;20048;-91
2022/05/15 09:55:22;;;;;;;5.82;2.10;;;29.50;72.40;;;;;;5020466;28;20029;-92
2022/05/15 09:58:03;;;;;;;7.18;2.38;;;30.60;69.20;;;;;;5019957;28;20050;-91
2022/05/15 10:00:35;;;;;;;5.25;2.25;;;31.50;66.20;;;;;;5019696;28;20046;-90
2022/05/15 10:03:21;;;;;;;2.90;1.88;;;31.70;63.30;;;;;;5019469;28;20058;-89
2022/05/15 10:06:03;;;;;;;5.47;2.38;;;31.90;63.20;;;;;;5014955;28;20035;-90
2022/05/15 10:08:30;;;;;;;8.25;2.10;;;33.30;61.70;;;;;;4994702;28;20053;-89
2022/05/15 10:11:25;;;;;;;6.25;2.22;;;34.70;59.30;;;;;;5010163;28;20031;-90
2022/05/15 10:13:54;;;;;;;7.03;2.28;;;35.90;56.30;;;;;;5003902;28;20128;-91
2022/05/15 10:16:31;;;;;;;6.95;2.15;;;36.80;54.60;;;;;;4996348;28;20023;-90
2022/05/15 10:19:24;;;;;;;4.93;2.17;;;37.70;52.70;;;;;;5014627;28;20034;-90
2022/05/15 10:21:56;;;;;;;5.43;2.30;;;39.30;50.60;;;;;;5015876;28;20034;-91
2022/05/15 10:24:29;;;;;;;5.68;1.90;;;40.20;48.70;;;;;;5016968;28;20034;-90
2022/05/15 10:27:02;;;;;;;5.20;2.10;;;41.10;47.40;;;;;;5017337;28;20053;-89
2022/05/15 10:29:36;;;;;;;3.45;2.10;;;40.60;46.40;;;;;;5015842;28;20049;-90
2022/05/15 10:32:23;;;;;;;4.05;2.20;;;40.50;46.40;;;;;;5016720;28;20081;-91
2022/05/15 10:34:49;;;;;;;10.85;2.17;;;41.00;45.80;;;;;;5018050;28;20093;-90
2022/05/15 10:37:45;;;;;;;4.05;1.90;;;41.50;45.00;;;;;;5001360;28;20034;-90
2022/05/15 10:40:43;;;;;;;10.68;2.28;;;41.50;44.70;;;;;;5014262;28;20089;-89
2022/05/15 10:43:28;;;;;;;4.50;1.98;;;41.70;43.80;;;;;;5015402;28;20037;-91
2022/05/15 10:46:33;;;;;;;5.90;2.13;;;41.40;43.40;;;;;;5017165;28;20037;-92
2022/05/15 10:49:33;;;;;;;3.55;2.00;;;41.50;43.10;;;;;;5015711;28;20084;-90
2022/05/15 10:52:18;;;;;;;7.90;2.60;;;41.40;43.20;;;;;;5015316;28;20062;-89
2022/05/15 10:58:18;;;;;;;6.93;1.90;;;41.60;43.40;;;;;;5013670;28;20022;-91
2022/05/15 11:00:55;;;;;;;5.65;1.98;;;42.60;42.50;;;;;;5013970;28;20034;-88
2022/05/15 11:03:52;;;;;;;7.07;2.08;;;42.40;41.80;;;;;;5014736;28;20034;-91
2022/05/15 11:06:38;;;;;;;4.80;2.13;;;42.90;41.70;;;;;;5014648;28;20054;-90
2022/05/15 11:09:19;;;;;;;4.90;2.05;;;43.20;41.60;;;;;;5015867;28;20057;-91
2022/05/15 11:11:57;;;;;;;7.10;2.60;;;43.50;41.40;;;;;;5014423;28;20093;-89
2022/05/15 11:14:36;;;;;;;5.45;2.58;;;43.60;41.00;;;;;;5018558;28;20026;-89
2022/05/15 11:17:23;;;;;;;7.43;2.40;;;42.80;41.80;;;;;;5017992;28;20068;-92
2022/05/15 11:19:50;;;;;;;4.38;2.10;;;43.40;41.10;;;;;;5001749;28;20030;-92
2022/05/15 11:22:31;;;;;;;8.75;2.15;;;42.70;41.10;;;;;;5013717;28;20517;-89
2022/05/15 11:25:18;;;;;;;4.97;2.47;;;40.60;42.10;;;;;;5006610;28;20027;-90
2022/05/15 11:27:49;;;;;;;4.25;2.10;;;40.80;42.20;;;;;;5004381;28;20057;-89
2022/05/15 11:30:24;;;;;;;6.80;2.10;;;41.90;41.80;;;;;;4988118;28;20045;-89
2022/05/15 11:32:53;;;;;;;6.35;2.30;;;41.50;41.60;;;;;;5011543;28;20034;-90
2022/05/15 11:35:21;;;;;;;3.92;2.20;;;41.80;42.00;;;;;;5011246;28;20026;-90
2022/05/15 11:38:02;;;;;;;5.38;2.10;;;42.20;41.40;;;;;;5014926;28;20037;-88
2022/05/15 11:40:43;;;;;;;5.60;2.30;;;42.30;41.50;;;;;;5014177;28;20069;-92
2022/05/15 11:43:28;;;;;;;3.78;2.30;;;41.60;41.60;;;;;;5014356;28;20141;-89
2022/05/15 11:45:58;;;;;;;5.95;2.35;;;41.00;41.50;;;;;;5007017;28;20132;-89
2022/05/15 11:48:49;;;;;;;3.13;1.80;;;39.70;42.90;;;;;;5005812;28;20041;-90
2022/05/15 11:51:17;;;;;;;4.80;2.00;;;40.70;42.30;;;;;;5008665;28;20022;-87
2022/05/15 11:53:59;;;;;;;6.78;2.13;;;41.20;42.10;;;;;;5006365;28;20025;-90
2022/05/15 11:56:51;;;;;;;7.57;2.45;;;41.40;41.50;;;;;;4995837;28;20122;-90
2022/05/15 11:59:29;;;;;;;5.43;2.00;;;41.70;41.20;;;;;;5011409;28;20062;-89
2022/05/15 12:02:04;;;;;;;4.47;1.98;;;42.40;40.70;;;;;;5015746;28;20022;-88
2022/05/15 12:04:36;;;;;;;7.60;1.92;;;42.10;40.70;;;;;;5017289;28;20061;-89
2022/05/15 12:07:01;;;;;;;10.82;3.83;;;40.90;41.00;;;;;;5016983;28;20033;-90
2022/05/15 12:09:33;;;;;;;7.60;2.05;;;40.60;41.70;;;;;;5016312;28;20031;-90
2022/05/15 12:12:44;;;;;;;5.93;1.98;;;40.80;41.20;;;;;;5015396;28;20090;-90
2022/05/15 12:15:32;;;;;;;5.60;2.30;;;41.90;40.90;;;;;;4958141;29;20030;-91
2022/05/15 12:18:23;;;;;;;4.13;1.90;;;42.90;40.50;;;;;;5016908;28;20015;-90
2022/05/15 12:20:52;;;;;;;6.00;2.25;;;42.60;40.30;;;;;;4996038;28;20042;-91
2022/05/15 12:23:20;;;;;;;4.25;1.90;;;42.80;39.80;;;;;;5014120;28;20014;-89
2022/05/15 12:25:57;;;;;;;3.63;1.88;;;42.00;40.40;;;;;;5016375;28;20034;-90
2022/05/15 12:28:50;;;;;;;3.08;1.80;;;42.20;40.10;;;;;;4997701;28;20038;-90
2022/05/15 12:31:23;;;;;;;9.75;2.72;;;41.00;40.50;;;;;;5011732;28;20022;-90
2022/05/15 12:33:49;;;;;;;5.80;2.08;;;39.80;41.20;;;;;;5014155;28;20034;-90
2022/05/15 12:36:55;;;;;;;4.00;1.88;;;39.30;41.30;;;;;;4996470;28;20085;-90
2022/05/15 12:39:24;;;;;;;3.35;1.80;;;40.50;41.30;;;;;;4990160;28;20038;-88
2022/05/15 12:41:51;;;;;;;6.57;2.13;;;42.00;40.80;;;;;;5015649;28;20109;-91
2022/05/15 12:44:35;;;;;;;5.90;1.92;;;43.30;39.90;;;;;;5020054;28;20073;-91
2022/05/15 12:47:04;;;;;;;5.38;2.15;;;43.70;39.30;;;;;;5004156;28;20038;-90
2022/05/15 12:49:41;;;;;;;4.60;2.17;;;43.70;39.40;;;;;;5020603;28;20588;-90
2022/05/15 12:52:32;;;;;;;3.65;1.65;;;43.80;39.30;;;;;;5005016;28;20019;-88
2022/05/15 12:55:06;;;;;;;5.25;2.13;;;44.50;38.60;;;;;;5020349;28;20074;-90
2022/05/15 12:57:46;;;;;;;3.65;1.60;;;44.10;39.20;;;;;;5021576;28;20026;-89
2022/05/15 13:00:15;;;;;;;3.10;1.48;;;42.90;39.10;;;;;;5020442;28;20042;-90
2022/05/15 13:02:55;;;;;;;4.68;1.70;;;42.90;38.80;;;;;;5021307;28;20007;-89
2022/05/15 13:05:33;;;;;;;4.35;1.85;;;43.60;38.40;;;;;;5003841;28;20036;-89
2022/05/15 13:08:01;;;;;;;3.47;1.77;;;43.90;38.20;;;;;;5003865;28;20042;-90
2022/05/15 13:10:28;;;;;;;3.05;1.40;;;42.50;38.80;;;;;;5019970;28;20045;-89
2022/05/15 13:12:55;;;;;;;8.13;2.47;;;43.30;38.10;;;;;;5016190;28;20030;-89
2022/05/15 13:15:28;;;;;;;5.82;1.70;;;43.40;38.10;;;;;;5013527;28;20026;-89
2022/05/15 13:17:56;;;;;;;5.53;1.50;;;42.90;38.30;;;;;;5018765;28;20034;-89
2022/05/15 13:20:25;;;;;;;2.75;1.77;;;42.60;38.40;;;;;;5017339;28;20026;-89
2022/05/15 13:22:52;;;;;;;3.15;1.73;;;42.10;38.50;;;;;;5017399;28;20030;-88
2022/05/15 13:25:34;;;;;;;2.72;1.55;;;42.10;38.60;;;;;;5001927;28;20164;-89
2022/05/15 13:28:00;;;;;;;4.50;2.00;;;42.10;38.40;;;;;;5017953;28;20046;-89
2022/05/15 13:30:30;;;;;;;7.45;1.70;;;42.70;38.70;;;;;;5016762;28;20030;-89